Cuneo / Levaldigi, Italy
Alba: 4:54 AM UTC1
Tramonto: 7:56 PM UTC1
 Lat: 44.53N, Lon: 7.62E
ICAO Used: LIMZ
Condizioni Meteo Attuali Aggiornate: 22.05.2019 alle 10:50 UTC
Parz Nuvoloso
Parz Nuvoloso
Parz Nuvoloso
Temp: 21°C
Umidita': 60%
Direz/Vel. Vento: variabile 4 / KT raffiche
Pressione: 1014 hPa
Punto di rugiada: 13°C
Temperatura percepita: 21°C
Visibilitą: >10 KM (ottima)
Temperatura percepita in
presenza di vento (Wind Chill)
:
N/D
T. max (ultime 24 ore): 20°C
T. min (ultime 24 ore): 12°C


METAR ORIGINALE
LIMZ 221050Z VRB04KT 9999 FEW030 21/13 Q1014



[ Indietro ]


Elaborazione dati by Datameteo.com - Lrc srl Copyright ©, All rights reserved.